createdAt,value
2023-10-30T00:01:00.000Z,0
2023-10-30T00:02:16.000Z,0
2023-10-30T00:03:33.000Z,0
2023-10-30T00:04:50.000Z,0
2023-10-30T00:06:06.000Z,0
2023-10-30T00:07:23.000Z,0
2023-10-30T00:08:39.000Z,0
2023-10-30T00:09:56.000Z,0
2023-10-30T00:11:12.000Z,0
2023-10-30T00:12:29.000Z,0
2023-10-30T00:13:45.000Z,0
2023-10-30T00:15:02.000Z,0
2023-10-30T00:16:18.000Z,0
2023-10-30T00:17:34.000Z,0
2023-10-30T00:18:51.000Z,0
2023-10-30T00:20:07.000Z,0
2023-10-30T00:21:24.000Z,0
2023-10-30T00:22:40.000Z,0
2023-10-30T00:23:57.000Z,0
2023-10-30T00:25:13.000Z,0
2023-10-30T00:26:30.000Z,0
2023-10-30T00:27:46.000Z,0
2023-10-30T00:29:03.000Z,0
2023-10-30T00:30:20.000Z,0
2023-10-30T00:31:36.000Z,0
2023-10-30T00:32:53.000Z,0
2023-10-30T00:34:08.000Z,0
2023-10-30T00:35:25.000Z,0
2023-10-30T00:36:41.000Z,0
2023-10-30T00:37:58.000Z,0
2023-10-30T00:39:15.000Z,0
2023-10-30T00:40:31.000Z,0
2023-10-30T00:41:48.000Z,0
2023-10-30T00:43:04.000Z,0
2023-10-30T00:44:21.000Z,0
2023-10-30T00:45:37.000Z,0
2023-10-30T00:46:54.000Z,0
2023-10-30T00:48:10.000Z,0
2023-10-30T00:49:27.000Z,0
2023-10-30T00:50:43.000Z,0
2023-10-30T00:51:59.000Z,0
2023-10-30T00:53:16.000Z,0
2023-10-30T00:54:32.000Z,0
2023-10-30T00:55:49.000Z,0
2023-10-30T00:57:05.000Z,0
2023-10-30T00:58:22.000Z,0
2023-10-30T00:59:38.000Z,0
2023-10-30T01:00:55.000Z,0
2023-10-30T01:02:11.000Z,0
2023-10-30T01:03:28.000Z,0
2023-10-30T01:04:45.000Z,0
2023-10-30T01:06:01.000Z,0
2023-10-30T01:07:17.000Z,0
2023-10-30T01:08:33.000Z,0
2023-10-30T01:09:49.000Z,0
2023-10-30T01:11:06.000Z,0
2023-10-30T01:12:22.000Z,0
2023-10-30T01:13:39.000Z,0
2023-10-30T01:14:55.000Z,0
2023-10-30T01:16:12.000Z,0
2023-10-30T01:17:28.000Z,0
2023-10-30T01:18:45.000Z,0
2023-10-30T01:20:02.000Z,0
2023-10-30T01:21:18.000Z,0
2023-10-30T01:22:35.000Z,0
2023-10-30T01:23:51.000Z,0
2023-10-30T01:25:08.000Z,0
2023-10-30T01:26:24.000Z,0
2023-10-30T01:27:41.000Z,0
2023-10-30T01:28:57.000Z,0
2023-10-30T01:30:13.000Z,0
2023-10-30T01:31:30.000Z,0
2023-10-30T01:32:46.000Z,0
2023-10-30T01:34:03.000Z,0
2023-10-30T01:35:19.000Z,0
2023-10-30T01:36:36.000Z,0
2023-10-30T01:37:52.000Z,0
2023-10-30T01:39:09.000Z,0
2023-10-30T01:40:25.000Z,0
2023-10-30T01:41:42.000Z,0
2023-10-30T01:42:58.000Z,0
2023-10-30T01:44:15.000Z,0
2023-10-30T01:45:31.000Z,0
2023-10-30T01:46:47.000Z,0
2023-10-30T01:48:04.000Z,0
2023-10-30T01:49:20.000Z,0
2023-10-30T01:50:37.000Z,0
2023-10-30T01:51:54.000Z,0
2023-10-30T01:53:10.000Z,0
2023-10-30T01:54:27.000Z,0
2023-10-30T01:55:43.000Z,0
2023-10-30T01:57:00.000Z,0
2023-10-30T01:58:16.000Z,0
2023-10-30T01:59:33.000Z,0
2023-10-30T02:00:49.000Z,0
2023-10-30T02:02:05.000Z,0
2023-10-30T02:03:22.000Z,0
2023-10-30T02:04:38.000Z,0
2023-10-30T02:05:55.000Z,0
2023-10-30T02:07:11.000Z,0
2023-10-30T02:08:28.000Z,0
2023-10-30T02:09:44.000Z,0
2023-10-30T02:11:01.000Z,0
2023-10-30T02:12:17.000Z,0
2023-10-30T02:13:34.000Z,0
2023-10-30T02:14:50.000Z,0
2023-10-30T02:16:07.000Z,0
2023-10-30T02:17:24.000Z,0
2023-10-30T02:18:40.000Z,0
2023-10-30T02:19:56.000Z,0
2023-10-30T02:21:12.000Z,0
2023-10-30T02:22:29.000Z,0
2023-10-30T02:23:45.000Z,0
2023-10-30T02:25:02.000Z,0
2023-10-30T02:26:19.043Z,0
2023-10-30T02:27:35.000Z,0
2023-10-30T02:28:52.000Z,0
2023-10-30T02:30:08.000Z,0
2023-10-30T02:31:25.000Z,0
2023-10-30T02:32:41.000Z,0
2023-10-30T02:33:58.000Z,0
2023-10-30T02:35:14.000Z,0
2023-10-30T02:36:30.000Z,0
2023-10-30T02:37:47.000Z,0
2023-10-30T02:39:03.000Z,0
2023-10-30T02:40:20.000Z,0
2023-10-30T02:41:36.000Z,0
2023-10-30T02:42:53.000Z,0
2023-10-30T02:44:09.000Z,0
2023-10-30T02:45:26.000Z,0
2023-10-30T02:46:42.000Z,0
2023-10-30T02:47:59.000Z,0
2023-10-30T02:49:15.000Z,0
2023-10-30T02:50:32.000Z,0
2023-10-30T02:51:49.000Z,0
2023-10-30T02:53:04.000Z,0
2023-10-30T02:54:21.000Z,0
2023-10-30T02:55:37.000Z,0
2023-10-30T02:56:54.000Z,0
2023-10-30T02:58:11.000Z,0
2023-10-30T02:59:27.000Z,0
2023-10-30T03:00:44.000Z,0
2023-10-30T03:02:00.000Z,0
2023-10-30T03:03:17.000Z,0
2023-10-30T03:04:33.000Z,0
2023-10-30T03:05:50.000Z,0
2023-10-30T03:07:06.000Z,0
2023-10-30T03:08:23.000Z,0
2023-10-30T03:09:39.000Z,0
2023-10-30T03:10:55.000Z,0
2023-10-30T03:12:12.000Z,0
2023-10-30T03:13:28.000Z,0
2023-10-30T03:14:45.000Z,0
2023-10-30T03:16:01.000Z,0
2023-10-30T03:17:18.000Z,0
2023-10-30T03:18:34.000Z,0
2023-10-30T03:19:51.000Z,0
2023-10-30T03:21:07.000Z,0
2023-10-30T03:22:24.000Z,0
2023-10-30T03:23:41.000Z,0
2023-10-30T03:24:57.000Z,0
2023-10-30T03:26:13.000Z,0
2023-10-30T03:27:29.000Z,0
2023-10-30T03:28:46.000Z,0
2023-10-30T03:30:03.000Z,0
2023-10-30T03:31:19.000Z,0
2023-10-30T03:32:36.000Z,0
2023-10-30T03:33:52.000Z,0
2023-10-30T03:35:09.000Z,0
2023-10-30T03:36:25.000Z,0
2023-10-30T03:37:42.000Z,0
2023-10-30T03:38:58.000Z,0
2023-10-30T03:40:15.000Z,0
2023-10-30T03:41:31.000Z,0
2023-10-30T03:42:47.000Z,0
2023-10-30T03:44:04.000Z,0
2023-10-30T03:45:20.000Z,0
2023-10-30T03:46:37.000Z,0
2023-10-30T03:47:53.000Z,0
2023-10-30T03:49:10.000Z,0
2023-10-30T03:50:26.000Z,0
2023-10-30T03:51:43.000Z,0
2023-10-30T03:52:59.000Z,0
2023-10-30T03:54:16.000Z,0
2023-10-30T03:55:33.000Z,0
2023-10-30T03:56:49.000Z,0
2023-10-30T03:58:06.000Z,0
2023-10-30T03:59:21.000Z,0
2023-10-30T04:00:38.000Z,0
2023-10-30T04:01:54.000Z,0
2023-10-30T04:03:11.000Z,0
2023-10-30T04:04:28.000Z,0
2023-10-30T04:05:44.000Z,0
2023-10-30T04:07:01.000Z,0
2023-10-30T04:08:17.000Z,0
2023-10-30T04:09:34.000Z,0
2023-10-30T04:10:50.000Z,0
2023-10-30T04:12:07.000Z,0
2023-10-30T04:13:23.000Z,0
2023-10-30T04:14:40.000Z,0
2023-10-30T04:15:56.000Z,0
2023-10-30T04:17:12.000Z,0
2023-10-30T04:18:29.000Z,0
2023-10-30T04:19:45.000Z,0
2023-10-30T04:21:02.000Z,0
2023-10-30T04:23:35.000Z,0
2023-10-30T04:24:51.000Z,0
2023-10-30T04:26:08.000Z,0
2023-10-30T04:27:25.000Z,0
2023-10-30T04:28:41.000Z,0
2023-10-30T04:31:14.000Z,0
2023-10-30T04:32:31.000Z,0
2023-10-30T04:33:46.000Z,0
2023-10-30T04:35:03.000Z,0
2023-10-30T04:36:20.000Z,0
2023-10-30T04:38:53.000Z,0
2023-10-30T04:40:09.000Z,0
2023-10-30T04:42:41.000Z,0
2023-10-30T04:45:14.000Z,0
2023-10-30T04:46:30.000Z,0
2023-10-30T04:47:47.000Z,0
2023-10-30T04:49:04.000Z,0
2023-10-30T04:50:20.000Z,0
2023-10-30T04:51:37.000Z,0
2023-10-30T04:52:53.000Z,0
2023-10-30T04:54:10.000Z,0
2023-10-30T04:55:26.000Z,0
2023-10-30T04:56:41.000Z,0
2023-10-30T04:57:58.000Z,0
2023-10-30T04:59:14.956Z,0
2023-10-30T05:00:31.000Z,0
2023-10-30T05:01:48.000Z,0
2023-10-30T05:03:04.000Z,0
2023-10-30T05:04:21.000Z,0
2023-10-30T05:05:37.000Z,0
2023-10-30T05:06:54.000Z,0
2023-10-30T05:08:10.000Z,0
2023-10-30T05:09:26.000Z,0
2023-10-30T05:10:42.000Z,0
2023-10-30T05:11:58.000Z,0
2023-10-30T05:13:15.000Z,0
2023-10-30T05:14:32.000Z,0
2023-10-30T05:15:48.000Z,0
2023-10-30T05:17:05.000Z,0
2023-10-30T05:18:21.000Z,0
2023-10-30T05:19:38.000Z,0
2023-10-30T05:20:54.000Z,0
2023-10-30T05:22:09.000Z,0
2023-10-30T05:23:26.000Z,0
2023-10-30T05:24:42.000Z,0
2023-10-30T05:28:31.000Z,0
2023-10-30T05:29:47.000Z,0
2023-10-30T05:31:04.000Z,0
2023-10-30T05:32:20.000Z,0
2023-10-30T05:33:37.000Z,0
2023-10-30T05:36:10.000Z,0
2023-10-30T05:37:26.000Z,0
2023-10-30T05:38:42.000Z,0
2023-10-30T05:39:58.000Z,0
2023-10-30T05:41:15.000Z,0
2023-10-30T05:42:31.000Z,0
2023-10-30T05:43:48.000Z,0
2023-10-30T05:46:21.000Z,0
2023-10-30T05:47:37.000Z,0
2023-10-30T05:48:54.000Z,0
2023-10-30T05:50:10.000Z,0
2023-10-30T05:51:27.000Z,0
2023-10-30T05:52:44.000Z,0
2023-10-30T05:54:00.000Z,0
2023-10-30T05:55:17.000Z,0
2023-10-30T05:56:32.000Z,0
2023-10-30T05:57:49.000Z,0
2023-10-30T05:59:05.000Z,0
2023-10-30T06:00:22.000Z,0
2023-10-30T06:01:39.000Z,0
2023-10-30T06:04:12.000Z,0
2023-10-30T06:05:28.000Z,0
2023-10-30T06:06:45.000Z,0
2023-10-30T06:08:01.000Z,0
2023-10-30T06:09:18.000Z,0
2023-10-30T06:10:34.000Z,0
2023-10-30T06:11:51.000Z,0
2023-10-30T06:13:07.000Z,0
2023-10-30T06:14:23.000Z,0
2023-10-30T06:15:39.000Z,0
2023-10-30T06:16:56.000Z,0
2023-10-30T06:19:29.000Z,0
2023-10-30T06:20:45.000Z,0
2023-10-30T06:22:02.000Z,5
2023-10-30T06:23:18.000Z,5
2023-10-30T06:24:35.000Z,5
2023-10-30T06:25:51.000Z,5
2023-10-30T06:27:08.000Z,11
2023-10-30T06:28:24.000Z,11
2023-10-30T06:29:41.000Z,11
2023-10-30T06:30:58.000Z,11
2023-10-30T06:32:13.000Z,11
2023-10-30T06:33:30.000Z,16
2023-10-30T06:34:46.000Z,16
2023-10-30T06:36:03.000Z,16
2023-10-30T06:37:20.000Z,22
2023-10-30T06:38:36.000Z,22
2023-10-30T06:39:53.000Z,28
2023-10-30T06:41:09.000Z,33
2023-10-30T06:42:26.000Z,39
2023-10-30T06:43:42.000Z,45
2023-10-30T06:44:59.000Z,50
2023-10-30T06:46:15.000Z,56
2023-10-30T06:47:32.000Z,61
2023-10-30T06:48:48.000Z,73
2023-10-30T06:50:04.000Z,78
2023-10-30T06:51:21.000Z,84
2023-10-30T06:52:37.000Z,84
2023-10-30T06:53:54.000Z,84
2023-10-30T06:55:10.000Z,84
2023-10-30T06:56:27.000Z,78
2023-10-30T06:57:43.000Z,78
2023-10-30T06:59:00.000Z,78
2023-10-30T07:00:16.000Z,90
2023-10-30T07:01:33.000Z,101
2023-10-30T07:02:50.000Z,106
2023-10-30T07:04:06.000Z,112
2023-10-30T07:05:22.000Z,118
2023-10-30T07:06:38.000Z,118
2023-10-30T07:07:55.000Z,123
2023-10-30T07:09:11.000Z,129
2023-10-30T07:10:28.000Z,135
2023-10-30T07:11:45.000Z,146
2023-10-30T07:13:01.000Z,151
2023-10-30T07:14:18.000Z,157
2023-10-30T07:15:34.000Z,157
2023-10-30T07:16:51.000Z,163
2023-10-30T07:18:07.000Z,168
2023-10-30T07:19:24.000Z,180
2023-10-30T07:20:40.000Z,191
2023-10-30T07:21:56.000Z,208
2023-10-30T07:23:13.000Z,225
2023-10-30T07:24:29.000Z,236
2023-10-30T07:25:46.000Z,230
2023-10-30T07:27:02.000Z,230
2023-10-30T07:28:19.000Z,225
2023-10-30T07:30:52.000Z,202
2023-10-30T07:32:08.000Z,196
2023-10-30T07:35:58.000Z,191
2023-10-30T07:37:14.000Z,196
2023-10-30T07:38:30.000Z,202
2023-10-30T07:39:46.000Z,208
2023-10-30T07:41:03.000Z,213
2023-10-30T07:42:19.000Z,219
2023-10-30T07:43:36.000Z,230
2023-10-30T07:44:52.000Z,247
2023-10-30T07:46:09.000Z,258
2023-10-30T07:47:26.000Z,270
2023-10-30T07:48:42.000Z,270
2023-10-30T07:49:58.000Z,275
2023-10-30T07:51:14.000Z,275
2023-10-30T07:53:47.000Z,298
2023-10-30T07:55:03.000Z,309
2023-10-30T07:56:20.000Z,315
2023-10-30T07:57:36.000Z,326
2023-10-30T07:58:53.000Z,331
2023-10-30T08:00:09.000Z,337
2023-10-30T08:01:26.000Z,331
2023-10-30T08:02:43.000Z,326
2023-10-30T08:03:59.000Z,326
2023-10-30T08:05:16.000Z,331
2023-10-30T08:06:32.000Z,365
2023-10-30T08:07:48.000Z,410
2023-10-30T08:09:05.000Z,450
2023-10-30T08:10:21.000Z,472
2023-10-30T08:11:38.000Z,472
2023-10-30T08:12:54.000Z,466
2023-10-30T08:14:11.000Z,466
2023-10-30T08:15:27.000Z,466
2023-10-30T08:16:44.000Z,489
2023-10-30T08:18:00.000Z,506
2023-10-30T08:19:17.000Z,517
2023-10-30T08:20:33.000Z,528
2023-10-30T08:21:50.000Z,545
2023-10-30T08:23:06.000Z,562
2023-10-30T08:24:22.000Z,585
2023-10-30T08:25:39.000Z,624
2023-10-30T08:26:55.000Z,646
2023-10-30T08:28:12.000Z,652
2023-10-30T08:30:45.000Z,646
2023-10-30T08:33:18.000Z,652
2023-10-30T08:34:35.000Z,658
2023-10-30T08:35:51.000Z,658
2023-10-30T08:37:08.000Z,646
2023-10-30T08:38:24.000Z,635
2023-10-30T08:39:41.000Z,641
2023-10-30T08:40:57.000Z,652
2023-10-30T08:42:13.000Z,675
2023-10-30T08:43:30.000Z,697
2023-10-30T08:44:46.000Z,725
2023-10-30T08:46:03.000Z,798
2023-10-30T08:47:19.000Z,849
2023-10-30T08:48:36.000Z,883
2023-10-30T08:51:09.000Z,905
2023-10-30T08:53:41.000Z,945
2023-10-30T08:54:57.000Z,967
2023-10-30T08:57:29.000Z,1057
2023-10-30T08:58:46.000Z,1080
2023-10-30T09:01:19.000Z,1018
2023-10-30T09:05:09.000Z,1001
2023-10-30T09:07:42.000Z,900
2023-10-30T09:10:15.000Z,871
2023-10-30T09:12:48.000Z,922
2023-10-30T09:14:04.000Z,916
2023-10-30T09:15:20.000Z,911
2023-10-30T09:17:53.000Z,939
2023-10-30T09:19:09.000Z,1012
2023-10-30T09:20:25.000Z,1164
2023-10-30T09:21:41.000Z,1186
2023-10-30T09:22:57.000Z,1361
2023-10-30T09:24:14.000Z,1288
2023-10-30T09:26:47.000Z,1085
2023-10-30T09:28:04.000Z,1040
2023-10-30T09:29:20.000Z,1035
2023-10-30T09:30:37.000Z,1063
2023-10-30T09:31:53.000Z,1063
2023-10-30T09:33:10.000Z,956
2023-10-30T09:34:26.000Z,894
2023-10-30T09:38:16.000Z,793
2023-10-30T09:39:32.000Z,736
2023-10-30T09:42:05.000Z,759
2023-10-30T09:43:21.000Z,804
2023-10-30T09:44:38.000Z,832
2023-10-30T09:45:54.000Z,911
2023-10-30T09:47:10.000Z,939
2023-10-30T09:48:27.000Z,1006
2023-10-30T09:49:43.000Z,1051
2023-10-30T09:51:00.000Z,1068
2023-10-30T09:52:16.000Z,1125
2023-10-30T09:53:33.000Z,1175
2023-10-30T09:56:06.000Z,1158
2023-10-30T09:57:23.000Z,1113
2023-10-30T09:58:39.000Z,1130
2023-10-30T09:59:56.000Z,1153
2023-10-30T10:01:12.000Z,1181
2023-10-30T10:02:28.000Z,1209
2023-10-30T10:03:45.000Z,1203
2023-10-30T10:05:01.000Z,1170
2023-10-30T10:06:18.000Z,1102
2023-10-30T10:07:34.000Z,1063
2023-10-30T10:08:50.000Z,1068
2023-10-30T10:10:06.000Z,1108
2023-10-30T10:11:22.000Z,1186
2023-10-30T10:12:39.000Z,1260
2023-10-30T10:15:12.000Z,1265
2023-10-30T10:16:29.000Z,1220
2023-10-30T10:17:45.000Z,1198
2023-10-30T10:20:18.000Z,1136
2023-10-30T10:21:35.000Z,1181
2023-10-30T10:22:51.000Z,1198
2023-10-30T10:24:07.000Z,1170
2023-10-30T10:25:23.000Z,1231
2023-10-30T10:26:39.000Z,1254
2023-10-30T10:27:56.000Z,1293
2023-10-30T10:29:13.000Z,1400
2023-10-30T10:30:29.000Z,1614
2023-10-30T10:31:46.000Z,1946
2023-10-30T10:33:02.000Z,1878
2023-10-30T10:34:19.000Z,1777
2023-10-30T10:35:35.000Z,1833
2023-10-30T10:36:51.000Z,1968
2023-10-30T10:38:07.000Z,2126
2023-10-30T10:39:23.000Z,1681
2023-10-30T10:41:57.000Z,1372
2023-10-30T10:43:13.000Z,1237
2023-10-30T10:44:30.000Z,1147
2023-10-30T10:45:46.000Z,1113
2023-10-30T10:47:03.000Z,1164
2023-10-30T10:48:19.000Z,1282
2023-10-30T10:50:52.000Z,1372
2023-10-30T10:52:08.000Z,1378
2023-10-30T10:53:24.000Z,1406
2023-10-30T10:54:41.000Z,1411
2023-10-30T10:55:57.000Z,1378
2023-10-30T10:57:14.000Z,1344
2023-10-30T10:58:30.000Z,1305
2023-10-30T10:59:47.000Z,1282
2023-10-30T11:01:03.000Z,1282
2023-10-30T11:02:20.000Z,1260
2023-10-30T11:03:36.000Z,1192
2023-10-30T11:06:09.000Z,1080
2023-10-30T11:07:25.000Z,1063
2023-10-30T11:08:41.000Z,1051
2023-10-30T11:09:58.000Z,1040
2023-10-30T11:12:31.000Z,990
2023-10-30T11:13:47.000Z,978
2023-10-30T11:15:04.000Z,961
2023-10-30T11:16:20.000Z,956
2023-10-30T11:17:37.000Z,961
2023-10-30T11:18:53.000Z,933
2023-10-30T11:20:10.000Z,922
2023-10-30T11:22:43.000Z,871
2023-10-30T11:25:15.000Z,905
2023-10-30T11:26:32.000Z,950
2023-10-30T11:27:48.000Z,967
2023-10-30T11:31:38.000Z,804
2023-10-30T11:32:55.000Z,787
2023-10-30T11:34:11.000Z,793
2023-10-30T11:38:01.000Z,922
2023-10-30T11:40:34.000Z,1125
2023-10-30T11:41:50.000Z,1248
2023-10-30T11:43:06.000Z,1383
2023-10-30T11:44:23.000Z,1535
2023-10-30T11:45:39.000Z,1614
2023-10-30T11:46:56.000Z,1693
2023-10-30T11:48:12.000Z,1738
2023-10-30T11:49:29.000Z,1811
2023-10-30T11:50:45.000Z,1901
2023-10-30T11:52:02.000Z,1935
2023-10-30T11:53:18.000Z,1867
2023-10-30T11:54:35.000Z,1839
2023-10-30T11:55:51.000Z,1760
2023-10-30T11:57:08.000Z,1676
2023-10-30T11:58:24.000Z,1721
2023-10-30T11:59:40.000Z,1653
2023-10-30T12:00:57.000Z,1586
2023-10-30T12:03:30.000Z,1468
2023-10-30T12:04:46.000Z,1417
2023-10-30T12:06:03.000Z,1501
2023-10-30T12:07:19.000Z,1406
2023-10-30T12:08:35.000Z,1361
2023-10-30T12:11:08.000Z,1254
2023-10-30T12:14:57.000Z,1080
2023-10-30T12:16:14.000Z,1035
2023-10-30T12:17:30.000Z,1001
2023-10-30T12:18:47.000Z,990
2023-10-30T12:36:39.000Z,793
2023-10-30T12:37:54.000Z,770
2023-10-30T12:40:27.000Z,759
2023-10-30T12:41:43.000Z,781
2023-10-30T12:42:59.000Z,804
2023-10-30T12:44:16.000Z,815
2023-10-30T12:45:32.000Z,832
2023-10-30T12:46:49.000Z,860
2023-10-30T12:48:05.000Z,883
2023-10-30T12:49:22.000Z,894
2023-10-30T12:50:38.000Z,883
2023-10-30T12:51:55.000Z,855
2023-10-30T12:53:11.000Z,815
2023-10-30T12:54:27.000Z,787
2023-10-30T12:55:43.000Z,776
2023-10-30T12:57:00.000Z,781
2023-10-30T12:58:16.000Z,781
2023-10-30T13:02:06.000Z,736
2023-10-30T13:03:22.000Z,736
2023-10-30T13:05:55.000Z,765
2023-10-30T13:07:12.000Z,793
2023-10-30T13:08:28.000Z,815
2023-10-30T13:09:45.000Z,826
2023-10-30T13:11:01.000Z,832
2023-10-30T13:12:17.000Z,832
2023-10-30T13:13:33.000Z,826
2023-10-30T13:14:50.000Z,838
2023-10-30T13:16:06.000Z,838
2023-10-30T13:18:39.000Z,798
2023-10-30T13:19:56.000Z,793
2023-10-30T13:21:12.000Z,798
2023-10-30T13:22:29.000Z,787
2023-10-30T13:23:45.000Z,770
2023-10-30T13:26:19.000Z,742
2023-10-30T13:27:35.000Z,720
2023-10-30T13:28:51.000Z,691
2023-10-30T13:30:07.000Z,652
2023-10-30T13:31:24.000Z,607
2023-10-30T13:32:40.000Z,551
2023-10-30T13:33:57.000Z,506
2023-10-30T13:35:14.000Z,478
2023-10-30T13:36:30.000Z,450
2023-10-30T13:37:47.000Z,405
2023-10-30T13:39:03.000Z,388
2023-10-30T13:40:20.000Z,388
2023-10-30T13:41:36.000Z,393
2023-10-30T13:42:53.000Z,393
2023-10-30T13:44:09.000Z,399
2023-10-30T13:45:25.000Z,399
2023-10-30T13:46:41.000Z,399
2023-10-30T13:47:58.000Z,393
2023-10-30T13:49:14.000Z,382
2023-10-30T13:50:31.000Z,365
2023-10-30T13:54:20.000Z,331
2023-10-30T13:58:10.000Z,258
2023-10-30T13:59:26.000Z,241
2023-10-30T14:00:43.000Z,230
2023-10-30T14:01:59.000Z,219
2023-10-30T14:03:15.000Z,208
2023-10-30T14:05:47.000Z,202
2023-10-30T14:09:37.000Z,258
2023-10-30T14:12:10.000Z,241
2023-10-30T14:13:26.000Z,230
2023-10-30T14:14:43.000Z,225
2023-10-30T14:15:59.000Z,219
2023-10-30T14:17:16.000Z,208
2023-10-30T14:19:49.000Z,180
2023-10-30T14:21:05.000Z,157
2023-10-30T14:22:21.000Z,135
2023-10-30T14:23:38.000Z,118
2023-10-30T14:24:54.000Z,112
2023-10-30T14:26:11.000Z,118
2023-10-30T14:28:44.000Z,123
2023-10-30T14:31:17.000Z,157
2023-10-30T14:32:34.000Z,196
2023-10-30T14:33:50.000Z,230
2023-10-30T14:35:07.000Z,241
2023-10-30T14:36:23.000Z,236
2023-10-30T14:37:39.000Z,236
2023-10-30T14:38:55.000Z,247
2023-10-30T14:40:12.000Z,258
2023-10-30T14:41:29.000Z,264
2023-10-30T14:42:45.000Z,258
2023-10-30T14:44:02.000Z,258
2023-10-30T14:45:18.000Z,253
2023-10-30T14:46:35.000Z,253
2023-10-30T14:49:08.000Z,241
2023-10-30T14:50:24.000Z,236
2023-10-30T14:51:41.000Z,230
2023-10-30T14:52:57.000Z,225
2023-10-30T14:54:13.000Z,213
2023-10-30T14:55:30.000Z,196
2023-10-30T14:56:46.000Z,185
2023-10-30T14:58:02.000Z,174
2023-10-30T15:00:34.000Z,146
2023-10-30T15:01:51.000Z,140
2023-10-30T15:04:24.000Z,157
2023-10-30T15:06:57.000Z,135
2023-10-30T15:08:14.000Z,118
2023-10-30T15:09:30.000Z,118
2023-10-30T15:10:47.000Z,118
2023-10-30T15:12:03.000Z,129
2023-10-30T15:13:20.000Z,129
2023-10-30T15:14:36.000Z,123
2023-10-30T15:15:52.000Z,112
2023-10-30T15:17:08.000Z,101
2023-10-30T15:18:25.000Z,84
2023-10-30T15:19:41.000Z,73
2023-10-30T15:20:58.000Z,61
2023-10-30T15:22:14.000Z,61
2023-10-30T15:23:31.000Z,73
2023-10-30T15:24:47.000Z,67
2023-10-30T15:26:04.000Z,56
2023-10-30T15:27:20.000Z,45
2023-10-30T15:28:35.000Z,33
2023-10-30T15:29:52.000Z,28
2023-10-30T15:31:09.000Z,22
2023-10-30T15:32:25.000Z,16
2023-10-30T15:34:58.000Z,16
2023-10-30T15:36:15.000Z,11
2023-10-30T15:37:31.000Z,5
2023-10-30T15:38:48.000Z,5
2023-10-30T15:40:04.000Z,0
2023-10-30T15:41:21.000Z,0
2023-10-30T15:42:37.000Z,5
2023-10-30T15:43:54.000Z,5
2023-10-30T15:45:10.000Z,11
2023-10-30T15:46:27.000Z,11
2023-10-30T15:47:43.000Z,16
2023-10-30T15:48:59.000Z,16
2023-10-30T15:50:16.000Z,16
2023-10-30T15:52:49.000Z,11
2023-10-30T15:54:05.000Z,5
2023-10-30T15:55:22.000Z,5
2023-10-30T15:57:55.000Z,0
2023-10-30T15:59:11.000Z,0
2023-10-30T16:01:44.000Z,0
2023-10-30T16:03:00.000Z,0
2023-10-30T16:04:16.000Z,0
2023-10-30T16:08:06.000Z,0
2023-10-30T16:09:23.000Z,0
2023-10-30T16:10:39.000Z,0
2023-10-30T16:15:45.000Z,0
2023-10-30T16:17:02.000Z,0
2023-10-30T16:18:18.000Z,0
2023-10-30T16:20:51.000Z,0
2023-10-30T16:22:07.000Z,0
2023-10-30T16:23:24.000Z,0
2023-10-30T16:24:40.000Z,0
2023-10-30T16:25:57.000Z,0
2023-10-30T16:27:13.000Z,0
2023-10-30T16:28:30.000Z,0
2023-10-30T16:29:46.000Z,0
2023-10-30T16:31:03.000Z,0
2023-10-30T16:34:53.000Z,0
2023-10-30T16:36:08.000Z,0
2023-10-30T16:37:25.000Z,0
2023-10-30T16:39:58.000Z,0
2023-10-30T16:42:31.000Z,0
2023-10-30T16:43:48.000Z,0
2023-10-30T16:45:04.000Z,0
2023-10-30T16:46:21.000Z,0
2023-10-30T16:47:37.000Z,0
2023-10-30T16:48:54.000Z,0
2023-10-30T16:50:10.000Z,0
2023-10-30T16:51:27.000Z,0
2023-10-30T16:52:43.000Z,0
2023-10-30T16:53:59.000Z,0
2023-10-30T16:55:16.000Z,0
2023-10-30T16:57:49.000Z,0
2023-10-30T16:59:05.000Z,0
2023-10-30T17:00:22.000Z,0
2023-10-30T17:01:38.000Z,0
2023-10-30T17:02:55.000Z,0
2023-10-30T17:04:11.000Z,0
2023-10-30T17:06:44.000Z,0
2023-10-30T17:08:01.000Z,0
2023-10-30T17:09:17.000Z,0
2023-10-30T17:11:50.000Z,0
2023-10-30T17:13:06.000Z,0
2023-10-30T17:14:23.000Z,0
2023-10-30T17:15:40.000Z,0
2023-10-30T17:16:56.000Z,0
2023-10-30T17:18:13.000Z,0
2023-10-30T17:20:46.000Z,0
2023-10-30T17:22:02.000Z,0
2023-10-30T17:23:19.000Z,0
2023-10-30T17:24:35.000Z,0
2023-10-30T17:25:52.000Z,0
2023-10-30T17:27:08.000Z,0
2023-10-30T17:30:57.000Z,0
2023-10-30T17:33:30.000Z,0
2023-10-30T17:34:47.000Z,0
2023-10-30T17:36:03.000Z,0
2023-10-30T17:38:36.000Z,0
2023-10-30T17:39:53.000Z,0
2023-10-30T17:42:26.000Z,0
2023-10-30T17:43:42.000Z,0
2023-10-30T17:44:58.000Z,0
2023-10-30T17:46:15.000Z,0
2023-10-30T17:47:31.000Z,0
2023-10-30T17:50:05.000Z,0
2023-10-30T17:51:21.000Z,0
2023-10-30T17:52:38.000Z,0
2023-10-30T17:53:54.000Z,0
2023-10-30T17:55:11.000Z,0
2023-10-30T17:56:27.000Z,0
2023-10-30T17:57:44.000Z,0
2023-10-30T17:59:00.000Z,0
2023-10-30T18:00:16.000Z,0
2023-10-30T18:01:33.000Z,0
2023-10-30T18:02:49.000Z,0
2023-10-30T18:04:06.000Z,0
2023-10-30T18:05:22.000Z,0
2023-10-30T18:06:39.000Z,0
2023-10-30T18:07:55.000Z,0
2023-10-30T18:09:12.000Z,0
2023-10-30T18:10:28.000Z,0
2023-10-30T18:11:44.000Z,0
2023-10-30T18:13:00.000Z,0
2023-10-30T18:15:33.000Z,0
2023-10-30T18:16:50.000Z,0
2023-10-30T18:21:55.000Z,0
2023-10-30T18:25:44.000Z,0
2023-10-30T18:29:33.000Z,0
2023-10-30T18:30:49.000Z,0
2023-10-30T18:33:22.000Z,0
2023-10-30T18:34:38.000Z,0
2023-10-30T18:35:54.000Z,0
2023-10-30T18:38:27.000Z,0
2023-10-30T18:39:43.000Z,0
2023-10-30T18:42:16.000Z,0
2023-10-30T18:43:33.000Z,0
2023-10-30T18:44:49.000Z,0
2023-10-30T18:47:22.000Z,0
2023-10-30T18:48:39.000Z,0
2023-10-30T18:51:12.000Z,0
2023-10-30T18:52:29.000Z,0
2023-10-30T18:53:44.000Z,0
2023-10-30T18:56:17.000Z,0
2023-10-30T18:57:34.000Z,0
2023-10-30T19:00:07.000Z,0
2023-10-30T19:01:24.000Z,0
2023-10-30T19:02:40.000Z,0
2023-10-30T19:03:57.000Z,0
2023-10-30T19:05:13.000Z,0
2023-10-30T19:06:30.000Z,0
2023-10-30T19:10:19.000Z,0
2023-10-30T19:11:35.000Z,0
2023-10-30T19:14:08.000Z,0
2023-10-30T19:15:25.000Z,0
2023-10-30T19:16:41.000Z,0
2023-10-30T19:19:14.000Z,0
2023-10-30T19:20:31.000Z,0
2023-10-30T19:23:04.000Z,0
2023-10-30T19:24:20.000Z,0
2023-10-30T19:25:37.000Z,0
2023-10-30T19:28:10.000Z,0
2023-10-30T19:29:26.000Z,0
2023-10-30T19:30:42.000Z,0
2023-10-30T19:33:16.000Z,0
2023-10-30T19:34:32.000Z,0
2023-10-30T19:37:05.000Z,0
2023-10-30T19:39:38.000Z,0
2023-10-30T19:42:11.000Z,0
2023-10-30T19:43:28.000Z,0
2023-10-30T19:47:17.000Z,0
2023-10-30T19:48:33.000Z,0
2023-10-30T19:51:06.000Z,0
2023-10-30T19:52:23.000Z,0
2023-10-30T19:53:39.000Z,0
2023-10-30T19:56:12.000Z,0
2023-10-30T19:57:29.000Z,0
2023-10-30T19:58:46.000Z,0
2023-10-30T20:00:02.000Z,0
2023-10-30T20:01:19.000Z,0
2023-10-30T20:02:35.000Z,0
2023-10-30T20:03:52.000Z,0
2023-10-30T20:05:07.000Z,0
2023-10-30T20:06:24.000Z,0
2023-10-30T20:07:41.000Z,0
2023-10-30T20:08:57.000Z,0
2023-10-30T20:10:14.000Z,0
2023-10-30T20:11:30.000Z,0
2023-10-30T20:12:47.000Z,0
2023-10-30T20:14:03.000Z,0
2023-10-30T20:15:20.000Z,0
2023-10-30T20:16:36.000Z,0
2023-10-30T20:17:52.000Z,0
2023-10-30T20:19:08.000Z,0
2023-10-30T20:20:25.000Z,0
2023-10-30T20:21:41.000Z,0
2023-10-30T20:22:58.000Z,0
2023-10-30T20:25:31.000Z,0
2023-10-30T20:28:04.000Z,0
2023-10-30T20:29:20.000Z,0
2023-10-30T20:30:37.000Z,0
2023-10-30T20:31:53.000Z,0
2023-10-30T20:33:10.000Z,0
2023-10-30T20:34:26.000Z,0
2023-10-30T20:35:42.000Z,0
2023-10-30T20:36:58.000Z,0
2023-10-30T20:38:15.000Z,0
2023-10-30T20:39:31.000Z,0
2023-10-30T20:40:48.000Z,0
2023-10-30T20:42:04.000Z,0
2023-10-30T20:43:21.000Z,0
2023-10-30T20:44:37.000Z,0
2023-10-30T20:45:54.000Z,0
2023-10-30T20:47:10.000Z,0
2023-10-30T20:48:26.000Z,0
2023-10-30T20:49:42.000Z,0
2023-10-30T20:50:59.000Z,0
2023-10-30T20:52:15.000Z,0
2023-10-30T20:53:32.000Z,0
2023-10-30T20:54:48.000Z,0
2023-10-30T20:56:05.000Z,0
2023-10-30T20:57:21.000Z,0
2023-10-30T20:58:38.000Z,0
2023-10-30T20:59:54.000Z,0
2023-10-30T21:01:10.000Z,0
2023-10-30T21:02:26.000Z,0
2023-10-30T21:03:43.000Z,0
2023-10-30T21:04:59.000Z,0
2023-10-30T21:06:16.000Z,0
2023-10-30T21:07:32.000Z,0
2023-10-30T21:08:49.000Z,0
2023-10-30T21:10:05.000Z,0